< < Back
Terminal Aerodrome Forecast


Current Version              Previous Versions:   1  2  3  4  5  6  7  8  9  

Terminal Aerodrome Forecast

693
FTUS44 KMRX 281727
TAFTYS
TAF
KTYS 281727Z 2818/2918 VRB04KT P6SM VCTS BKN035CB BKN120
     FM290200 VRB03KT P6SM VCSH SCT035 BKN100
     FM290800 00000KT P6SM SCT040 OVC100
     FM291400 VRB03KT P6SM VCSH BKN040 OVC120=

Latest METAR

579
SAUS80 KWBC 290000 RRB
MTRTYS
METAR KTYS 282353Z 00000KT 10SM SCT035 SCT110 BKN150 OVC250 27/18 A3015
RMK AO2 SLP199 60000 T02670183 10278 20244 56004


USA.gov is the U.S. government's official web portal to all federal, state and local government web resources and services.